Berrien Center, Michigan
Current Conditions -  °F | °C
As of 7:53 PM on Saturday 22 Nov 2014 (Local Time) from KBEH Reporting Station
Overcast Overcast  
Wind Chill: 43°   Ceiling: 4900
Heat Index: 48°   Visibility: 7mi
Dew Point: 45°   Wind: 10mph
Humidity: 89%   Direction: 180°S
Pressure: 29.89"   Gusts: NA
Location:  41.96°N, 86.28°W
Report Text: KBEH 230053Z AUTO 18009KT 7SM FEW024 OVC049 09/07 A2989 RMK AO2 SLP126 T00890072
Loading
Personal Weather Stations






























Interactive Weather Map New forecast layout! Learn more

10-Day Weather Forecast

Advertisements
Track Severe Weather on mobile